sensor_id;sensor_type;location;lat;lon;timestamp;P1;durP1;ratioP1;P2;durP2;ratioP2
45909;SDS011;31622;55.416;37.840;2024-01-15T00:02:05;2.80;;;1.80;;
45909;SDS011;31622;55.416;37.840;2024-01-15T00:04:38;3.03;;;1.63;;
45909;SDS011;31622;55.416;37.840;2024-01-15T00:07:05;2.42;;;1.63;;
45909;SDS011;31622;55.416;37.840;2024-01-15T00:09:31;2.78;;;1.90;;
45909;SDS011;31622;55.416;37.840;2024-01-15T00:11:57;2.80;;;2.03;;
45909;SDS011;31622;55.416;37.840;2024-01-15T00:14:23;9.98;;;2.28;;
45909;SDS011;31622;55.416;37.840;2024-01-15T00:16:49;5.00;;;1.92;;
45909;SDS011;31622;55.416;37.840;2024-01-15T00:19:16;4.00;;;2.08;;
45909;SDS011;31622;55.416;37.840;2024-01-15T00:21:43;4.60;;;1.77;;
45909;SDS011;31622;55.416;37.840;2024-01-15T00:24:09;3.47;;;1.85;;
45909;SDS011;31622;55.416;37.840;2024-01-15T00:26:35;2.55;;;1.63;;
45909;SDS011;31622;55.416;37.840;2024-01-15T00:29:01;3.53;;;2.00;;
45909;SDS011;31622;55.416;37.840;2024-01-15T00:31:29;3.70;;;2.13;;
45909;SDS011;31622;55.416;37.840;2024-01-15T00:33:57;3.60;;;1.88;;
45909;SDS011;31622;55.416;37.840;2024-01-15T00:36:23;2.90;;;1.92;;
45909;SDS011;31622;55.416;37.840;2024-01-15T00:38:49;2.63;;;1.65;;
45909;SDS011;31622;55.416;37.840;2024-01-15T00:41:15;3.70;;;2.08;;
45909;SDS011;31622;55.416;37.840;2024-01-15T00:43:40;3.97;;;1.85;;
45909;SDS011;31622;55.416;37.840;2024-01-15T00:46:06;3.20;;;1.83;;
45909;SDS011;31622;55.416;37.840;2024-01-15T00:48:32;4.68;;;1.80;;
45909;SDS011;31622;55.416;37.840;2024-01-15T00:50:58;3.03;;;1.85;;
45909;SDS011;31622;55.416;37.840;2024-01-15T00:53:25;2.67;;;1.90;;
45909;SDS011;31622;55.416;37.840;2024-01-15T00:55:51;2.80;;;1.80;;
45909;SDS011;31622;55.416;37.840;2024-01-15T00:58:18;2.85;;;1.63;;
45909;SDS011;31622;55.416;37.840;2024-01-15T01:00:44;2.90;;;1.77;;
45909;SDS011;31622;55.416;37.840;2024-01-15T01:03:10;3.13;;;1.88;;
45909;SDS011;31622;55.416;37.840;2024-01-15T01:05:35;3.28;;;2.10;;
45909;SDS011;31622;55.416;37.840;2024-01-15T01:08:01;3.33;;;1.90;;
45909;SDS011;31622;55.416;37.840;2024-01-15T01:10:27;3.00;;;1.90;;
45909;SDS011;31622;55.416;37.840;2024-01-15T01:12:53;3.40;;;1.65;;
45909;SDS011;31622;55.416;37.840;2024-01-15T01:15:19;2.97;;;1.88;;
45909;SDS011;31622;55.416;37.840;2024-01-15T01:17:45;3.20;;;2.15;;
45909;SDS011;31622;55.416;37.840;2024-01-15T01:20:11;2.85;;;2.00;;
45909;SDS011;31622;55.416;37.840;2024-01-15T01:22:37;3.25;;;1.92;;
45909;SDS011;31622;55.416;37.840;2024-01-15T01:25:03;3.40;;;2.10;;
45909;SDS011;31622;55.416;37.840;2024-01-15T01:27:29;2.83;;;1.88;;
45909;SDS011;31622;55.416;37.840;2024-01-15T01:29:55;2.80;;;1.73;;
45909;SDS011;31622;55.416;37.840;2024-01-15T01:32:20;2.85;;;1.90;;
45909;SDS011;31622;55.416;37.840;2024-01-15T01:34:46;2.95;;;1.70;;
45909;SDS011;31622;55.416;37.840;2024-01-15T01:37:12;2.90;;;2.00;;
45909;SDS011;31622;55.416;37.840;2024-01-15T01:39:41;3.60;;;2.10;;
45909;SDS011;31622;55.416;37.840;2024-01-15T01:42:08;2.67;;;1.80;;
45909;SDS011;31622;55.416;37.840;2024-01-15T01:44:34;3.35;;;2.40;;
45909;SDS011;31622;55.416;37.840;2024-01-15T01:47:00;3.25;;;2.08;;
45909;SDS011;31622;55.416;37.840;2024-01-15T01:49:26;2.90;;;2.15;;
45909;SDS011;31622;55.416;37.840;2024-01-15T01:51:53;2.80;;;1.92;;
45909;SDS011;31622;55.416;37.840;2024-01-15T01:54:21;3.45;;;2.10;;
45909;SDS011;31622;55.416;37.840;2024-01-15T01:56:47;3.47;;;2.20;;
45909;SDS011;31622;55.416;37.840;2024-01-15T01:59:14;3.10;;;1.95;;
45909;SDS011;31622;55.416;37.840;2024-01-15T02:01:40;4.80;;;2.40;;
45909;SDS011;31622;55.416;37.840;2024-01-15T02:04:06;3.80;;;2.03;;
45909;SDS011;31622;55.416;37.840;2024-01-15T02:06:32;3.20;;;2.10;;
45909;SDS011;31622;55.416;37.840;2024-01-15T02:08:58;4.28;;;2.30;;
45909;SDS011;31622;55.416;37.840;2024-01-15T02:11:23;2.90;;;2.00;;
45909;SDS011;31622;55.416;37.840;2024-01-15T02:13:49;4.32;;;2.20;;
45909;SDS011;31622;55.416;37.840;2024-01-15T02:16:15;3.28;;;2.22;;
45909;SDS011;31622;55.416;37.840;2024-01-15T02:18:41;3.35;;;2.10;;
45909;SDS011;31622;55.416;37.840;2024-01-15T02:21:07;3.33;;;1.92;;
45909;SDS011;31622;55.416;37.840;2024-01-15T02:23:33;2.72;;;1.90;;
45909;SDS011;31622;55.416;37.840;2024-01-15T02:25:59;3.28;;;2.33;;
45909;SDS011;31622;55.416;37.840;2024-01-15T02:28:24;2.90;;;1.98;;
45909;SDS011;31622;55.416;37.840;2024-01-15T02:30:50;3.15;;;1.98;;
45909;SDS011;31622;55.416;37.840;2024-01-15T02:33:16;3.40;;;2.40;;
45909;SDS011;31622;55.416;37.840;2024-01-15T02:35:42;2.88;;;2.30;;
45909;SDS011;31622;55.416;37.840;2024-01-15T02:38:07;3.00;;;2.10;;
45909;SDS011;31622;55.416;37.840;2024-01-15T02:40:34;5.65;;;2.10;;
45909;SDS011;31622;55.416;37.840;2024-01-15T02:42:59;3.42;;;1.98;;
45909;SDS011;31622;55.416;37.840;2024-01-15T02:45:25;3.85;;;2.47;;
45909;SDS011;31622;55.416;37.840;2024-01-15T02:47:51;4.90;;;2.40;;
45909;SDS011;31622;55.416;37.840;2024-01-15T02:50:17;4.40;;;2.40;;
45909;SDS011;31622;55.416;37.840;2024-01-15T02:52:42;4.05;;;2.00;;
45909;SDS011;31622;55.416;37.840;2024-01-15T02:55:08;2.78;;;2.10;;
45909;SDS011;31622;55.416;37.840;2024-01-15T02:57:34;6.03;;;2.40;;
45909;SDS011;31622;55.416;37.840;2024-01-15T03:00:00;3.50;;;2.28;;
45909;SDS011;31622;55.416;37.840;2024-01-15T03:02:26;4.05;;;2.35;;
45909;SDS011;31622;55.416;37.840;2024-01-15T03:04:51;3.95;;;2.10;;
45909;SDS011;31622;55.416;37.840;2024-01-15T03:07:17;3.17;;;2.15;;
45909;SDS011;31622;55.416;37.840;2024-01-15T03:09:43;4.60;;;2.33;;
45909;SDS011;31622;55.416;37.840;2024-01-15T03:12:09;3.53;;;2.25;;
45909;SDS011;31622;55.416;37.840;2024-01-15T03:14:36;2.83;;;2.20;;
45909;SDS011;31622;55.416;37.840;2024-01-15T03:17:02;5.63;;;2.35;;
45909;SDS011;31622;55.416;37.840;2024-01-15T03:19:27;4.25;;;2.60;;
45909;SDS011;31622;55.416;37.840;2024-01-15T03:21:53;4.60;;;2.50;;
45909;SDS011;31622;55.416;37.840;2024-01-15T03:24:20;4.47;;;2.70;;
45909;SDS011;31622;55.416;37.840;2024-01-15T03:26:45;5.30;;;2.60;;
45909;SDS011;31622;55.416;37.840;2024-01-15T03:29:11;4.93;;;2.60;;
45909;SDS011;31622;55.416;37.840;2024-01-15T03:31:37;3.33;;;2.20;;
45909;SDS011;31622;55.416;37.840;2024-01-15T03:34:03;5.00;;;2.28;;
45909;SDS011;31622;55.416;37.840;2024-01-15T03:36:29;3.72;;;2.45;;
45909;SDS011;31622;55.416;37.840;2024-01-15T03:38:54;4.05;;;2.30;;
45909;SDS011;31622;55.416;37.840;2024-01-15T03:41:20;4.55;;;2.40;;
45909;SDS011;31622;55.416;37.840;2024-01-15T03:43:46;3.75;;;2.58;;
45909;SDS011;31622;55.416;37.840;2024-01-15T03:46:11;3.90;;;2.60;;
45909;SDS011;31622;55.416;37.840;2024-01-15T03:48:37;6.40;;;2.60;;
45909;SDS011;31622;55.416;37.840;2024-01-15T03:51:03;6.40;;;2.80;;
45909;SDS011;31622;55.416;37.840;2024-01-15T03:53:29;3.70;;;2.42;;
45909;SDS011;31622;55.416;37.840;2024-01-15T03:55:55;4.35;;;2.92;;
45909;SDS011;31622;55.416;37.840;2024-01-15T03:58:20;4.53;;;2.83;;
45909;SDS011;31622;55.416;37.840;2024-01-15T04:00:46;3.72;;;2.60;;
45909;SDS011;31622;55.416;37.840;2024-01-15T04:03:12;4.00;;;2.40;;
45909;SDS011;31622;55.416;37.840;2024-01-15T04:05:38;4.32;;;2.50;;
45909;SDS011;31622;55.416;37.840;2024-01-15T04:08:04;5.07;;;2.72;;
45909;SDS011;31622;55.416;37.840;2024-01-15T04:10:30;3.90;;;2.42;;
45909;SDS011;31622;55.416;37.840;2024-01-15T04:12:56;5.32;;;3.03;;
45909;SDS011;31622;55.416;37.840;2024-01-15T04:15:22;6.28;;;2.88;;
45909;SDS011;31622;55.416;37.840;2024-01-15T04:17:48;4.38;;;2.65;;
45909;SDS011;31622;55.416;37.840;2024-01-15T04:20:13;3.75;;;2.67;;
45909;SDS011;31622;55.416;37.840;2024-01-15T04:22:39;3.35;;;2.53;;
45909;SDS011;31622;55.416;37.840;2024-01-15T04:25:05;4.35;;;2.67;;
45909;SDS011;31622;55.416;37.840;2024-01-15T04:27:31;3.95;;;2.50;;
45909;SDS011;31622;55.416;37.840;2024-01-15T04:29:57;4.85;;;2.70;;
45909;SDS011;31622;55.416;37.840;2024-01-15T04:32:22;4.90;;;2.95;;
45909;SDS011;31622;55.416;37.840;2024-01-15T04:34:48;3.80;;;2.70;;
45909;SDS011;31622;55.416;37.840;2024-01-15T04:37:14;5.82;;;3.38;;
45909;SDS011;31622;55.416;37.840;2024-01-15T04:39:39;3.97;;;2.90;;
45909;SDS011;31622;55.416;37.840;2024-01-15T04:42:05;3.60;;;2.80;;
45909;SDS011;31622;55.416;37.840;2024-01-15T04:44:31;4.45;;;2.60;;
45909;SDS011;31622;55.416;37.840;2024-01-15T04:46:57;4.30;;;2.80;;
45909;SDS011;31622;55.416;37.840;2024-01-15T04:49:22;5.55;;;3.47;;
45909;SDS011;31622;55.416;37.840;2024-01-15T04:51:51;7.97;;;4.20;;
45909;SDS011;31622;55.416;37.840;2024-01-15T04:54:17;6.85;;;3.90;;
45909;SDS011;31622;55.416;37.840;2024-01-15T04:56:43;7.53;;;4.05;;
45909;SDS011;31622;55.416;37.840;2024-01-15T04:59:10;6.72;;;3.92;;
45909;SDS011;31622;55.416;37.840;2024-01-15T05:01:36;5.18;;;3.67;;
45909;SDS011;31622;55.416;37.840;2024-01-15T05:04:02;6.28;;;4.00;;
45909;SDS011;31622;55.416;37.840;2024-01-15T05:06:28;10.38;;;4.30;;
45909;SDS011;31622;55.416;37.840;2024-01-15T05:08:53;6.70;;;4.15;;
45909;SDS011;31622;55.416;37.840;2024-01-15T05:11:19;10.82;;;4.60;;
45909;SDS011;31622;55.416;37.840;2024-01-15T05:13:45;6.32;;;3.80;;
45909;SDS011;31622;55.416;37.840;2024-01-15T05:16:11;6.80;;;3.70;;
45909;SDS011;31622;55.416;37.840;2024-01-15T05:18:38;6.50;;;3.80;;
45909;SDS011;31622;55.416;37.840;2024-01-15T05:21:04;6.95;;;4.10;;
45909;SDS011;31622;55.416;37.840;2024-01-15T05:23:31;6.03;;;3.90;;
45909;SDS011;31622;55.416;37.840;2024-01-15T05:25:57;5.95;;;3.92;;
45909;SDS011;31622;55.416;37.840;2024-01-15T05:28:22;6.13;;;3.60;;
45909;SDS011;31622;55.416;37.840;2024-01-15T05:30:48;5.22;;;3.60;;
45909;SDS011;31622;55.416;37.840;2024-01-15T05:33:16;6.68;;;4.57;;
45909;SDS011;31622;55.416;37.840;2024-01-15T05:35:42;5.80;;;4.10;;
45909;SDS011;31622;55.416;37.840;2024-01-15T05:38:08;6.03;;;4.00;;
45909;SDS011;31622;55.416;37.840;2024-01-15T05:40:34;5.93;;;4.00;;
45909;SDS011;31622;55.416;37.840;2024-01-15T05:42:59;6.43;;;4.15;;
45909;SDS011;31622;55.416;37.840;2024-01-15T05:45:29;6.32;;;4.32;;
45909;SDS011;31622;55.416;37.840;2024-01-15T05:47:55;5.80;;;4.05;;
45909;SDS011;31622;55.416;37.840;2024-01-15T05:50:21;6.53;;;3.83;;
45909;SDS011;31622;55.416;37.840;2024-01-15T05:52:47;6.32;;;4.18;;
45909;SDS011;31622;55.416;37.840;2024-01-15T05:55:13;6.90;;;3.90;;
45909;SDS011;31622;55.416;37.840;2024-01-15T05:57:39;5.72;;;3.92;;
45909;SDS011;31622;55.416;37.840;2024-01-15T06:00:05;8.95;;;4.50;;
45909;SDS011;31622;55.416;37.840;2024-01-15T06:02:32;7.47;;;3.72;;
45909;SDS011;31622;55.416;37.840;2024-01-15T06:04:57;6.28;;;4.40;;
45909;SDS011;31622;55.416;37.840;2024-01-15T06:07:23;7.30;;;4.32;;
45909;SDS011;31622;55.416;37.840;2024-01-15T06:09:49;10.07;;;5.13;;
45909;SDS011;31622;55.416;37.840;2024-01-15T06:12:15;13.48;;;5.50;;
45909;SDS011;31622;55.416;37.840;2024-01-15T06:14:40;13.00;;;5.35;;
45909;SDS011;31622;55.416;37.840;2024-01-15T06:17:07;13.00;;;6.45;;
45909;SDS011;31622;55.416;37.840;2024-01-15T06:19:33;13.85;;;8.10;;
45909;SDS011;31622;55.416;37.840;2024-01-15T06:21:59;21.20;;;10.52;;
45909;SDS011;31622;55.416;37.840;2024-01-15T06:24:24;36.28;;;14.02;;
45909;SDS011;31622;55.416;37.840;2024-01-15T06:26:50;38.13;;;15.73;;
45909;SDS011;31622;55.416;37.840;2024-01-15T06:29:16;30.80;;;15.98;;
45909;SDS011;31622;55.416;37.840;2024-01-15T06:31:42;37.03;;;16.10;;
45909;SDS011;31622;55.416;37.840;2024-01-15T06:34:07;34.47;;;16.85;;
45909;SDS011;31622;55.416;37.840;2024-01-15T06:36:33;33.42;;;16.63;;
45909;SDS011;31622;55.416;37.840;2024-01-15T06:38:59;39.15;;;16.20;;
45909;SDS011;31622;55.416;37.840;2024-01-15T06:41:24;34.65;;;16.90;;
45909;SDS011;31622;55.416;37.840;2024-01-15T06:43:50;48.42;;;17.23;;
45909;SDS011;31622;55.416;37.840;2024-01-15T06:46:22;39.15;;;15.95;;
45909;SDS011;31622;55.416;37.840;2024-01-15T06:48:48;41.70;;;16.97;;
45909;SDS011;31622;55.416;37.840;2024-01-15T06:51:15;34.72;;;16.67;;
45909;SDS011;31622;55.416;37.840;2024-01-15T06:53:41;34.35;;;15.75;;
45909;SDS011;31622;55.416;37.840;2024-01-15T06:56:06;30.95;;;15.05;;
45909;SDS011;31622;55.416;37.840;2024-01-15T06:58:33;27.90;;;15.13;;
45909;SDS011;31622;55.416;37.840;2024-01-15T07:00:59;28.00;;;15.07;;
45909;SDS011;31622;55.416;37.840;2024-01-15T07:03:25;28.85;;;14.63;;
45909;SDS011;31622;55.416;37.840;2024-01-15T07:05:51;26.77;;;14.45;;
45909;SDS011;31622;55.416;37.840;2024-01-15T07:08:16;24.98;;;13.75;;
45909;SDS011;31622;55.416;37.840;2024-01-15T07:10:42;26.90;;;14.65;;
45909;SDS011;31622;55.416;37.840;2024-01-15T07:13:08;22.55;;;14.20;;
45909;SDS011;31622;55.416;37.840;2024-01-15T07:15:34;20.65;;;12.98;;
45909;SDS011;31622;55.416;37.840;2024-01-15T07:18:00;21.45;;;12.95;;
45909;SDS011;31622;55.416;37.840;2024-01-15T07:20:26;18.88;;;12.10;;
45909;SDS011;31622;55.416;37.840;2024-01-15T07:22:52;21.70;;;12.45;;
45909;SDS011;31622;55.416;37.840;2024-01-15T07:25:18;19.85;;;12.95;;
45909;SDS011;31622;55.416;37.840;2024-01-15T07:27:43;19.80;;;12.32;;
45909;SDS011;31622;55.416;37.840;2024-01-15T07:30:13;17.35;;;11.50;;
45909;SDS011;31622;55.416;37.840;2024-01-15T07:32:39;19.83;;;11.32;;
45909;SDS011;31622;55.416;37.840;2024-01-15T07:35:05;17.75;;;11.70;;
45909;SDS011;31622;55.416;37.840;2024-01-15T07:37:31;15.98;;;10.05;;
45909;SDS011;31622;55.416;37.840;2024-01-15T07:39:58;16.40;;;10.38;;
45909;SDS011;31622;55.416;37.840;2024-01-15T07:42:24;15.05;;;8.95;;
45909;SDS011;31622;55.416;37.840;2024-01-15T07:44:50;13.77;;;9.65;;
45909;SDS011;31622;55.416;37.840;2024-01-15T07:47:16;16.65;;;9.60;;
45909;SDS011;31622;55.416;37.840;2024-01-15T07:49:42;14.90;;;9.38;;
45909;SDS011;31622;55.416;37.840;2024-01-15T07:52:09;13.82;;;9.68;;
45909;SDS011;31622;55.416;37.840;2024-01-15T07:54:35;13.80;;;8.57;;
45909;SDS011;31622;55.416;37.840;2024-01-15T07:57:01;14.82;;;8.68;;
45909;SDS011;31622;55.416;37.840;2024-01-15T07:59:30;14.10;;;8.43;;
45909;SDS011;31622;55.416;37.840;2024-01-15T08:01:57;15.40;;;9.13;;
45909;SDS011;31622;55.416;37.840;2024-01-15T08:04:24;12.05;;;8.57;;
45909;SDS011;31622;55.416;37.840;2024-01-15T08:06:50;12.45;;;7.93;;
45909;SDS011;31622;55.416;37.840;2024-01-15T08:09:16;13.50;;;8.23;;
45909;SDS011;31622;55.416;37.840;2024-01-15T08:11:42;15.75;;;8.35;;
45909;SDS011;31622;55.416;37.840;2024-01-15T08:14:08;11.48;;;7.57;;
45909;SDS011;31622;55.416;37.840;2024-01-15T08:16:35;14.93;;;7.30;;
45909;SDS011;31622;55.416;37.840;2024-01-15T08:19:01;11.60;;;7.18;;
45909;SDS011;31622;55.416;37.840;2024-01-15T08:21:27;10.52;;;6.78;;
45909;SDS011;31622;55.416;37.840;2024-01-15T08:24:00;13.38;;;7.05;;
45909;SDS011;31622;55.416;37.840;2024-01-15T08:26:28;10.50;;;6.72;;
45909;SDS011;31622;55.416;37.840;2024-01-15T08:28:54;8.93;;;6.35;;
45909;SDS011;31622;55.416;37.840;2024-01-15T08:31:20;10.35;;;6.47;;
45909;SDS011;31622;55.416;37.840;2024-01-15T08:33:46;8.70;;;6.20;;
45909;SDS011;31622;55.416;37.840;2024-01-15T08:36:12;9.98;;;6.22;;
45909;SDS011;31622;55.416;37.840;2024-01-15T08:38:38;9.68;;;6.10;;
45909;SDS011;31622;55.416;37.840;2024-01-15T08:41:04;7.78;;;6.03;;
45909;SDS011;31622;55.416;37.840;2024-01-15T08:43:30;9.63;;;6.38;;
45909;SDS011;31622;55.416;37.840;2024-01-15T08:45:58;8.40;;;5.57;;
45909;SDS011;31622;55.416;37.840;2024-01-15T08:48:24;8.10;;;5.88;;
45909;SDS011;31622;55.416;37.840;2024-01-15T08:50:52;10.32;;;6.20;;
45909;SDS011;31622;55.416;37.840;2024-01-15T08:53:19;8.32;;;5.60;;
45909;SDS011;31622;55.416;37.840;2024-01-15T08:55:45;9.35;;;6.05;;
45909;SDS011;31622;55.416;37.840;2024-01-15T08:58:11;7.40;;;5.35;;
45909;SDS011;31622;55.416;37.840;2024-01-15T09:00:37;7.70;;;5.35;;
45909;SDS011;31622;55.416;37.840;2024-01-15T09:03:03;6.88;;;5.25;;
45909;SDS011;31622;55.416;37.840;2024-01-15T09:05:29;7.38;;;5.57;;
45909;SDS011;31622;55.416;37.840;2024-01-15T09:07:55;7.00;;;5.00;;
45909;SDS011;31622;55.416;37.840;2024-01-15T09:10:21;7.07;;;4.90;;
45909;SDS011;31622;55.416;37.840;2024-01-15T09:12:47;7.25;;;4.90;;
45909;SDS011;31622;55.416;37.840;2024-01-15T09:15:14;7.45;;;4.82;;
45909;SDS011;31622;55.416;37.840;2024-01-15T09:17:40;7.30;;;4.50;;
45909;SDS011;31622;55.416;37.840;2024-01-15T09:20:06;6.35;;;4.70;;
45909;SDS011;31622;55.416;37.840;2024-01-15T09:22:33;5.90;;;4.45;;
45909;SDS011;31622;55.416;37.840;2024-01-15T09:24:59;7.75;;;5.28;;
45909;SDS011;31622;55.416;37.840;2024-01-15T09:27:25;6.78;;;4.68;;
45909;SDS011;31622;55.416;37.840;2024-01-15T09:29:53;6.80;;;4.63;;
45909;SDS011;31622;55.416;37.840;2024-01-15T09:32:19;5.65;;;4.30;;
45909;SDS011;31622;55.416;37.840;2024-01-15T09:34:45;6.18;;;4.40;;
45909;SDS011;31622;55.416;37.840;2024-01-15T09:37:11;4.78;;;3.85;;
45909;SDS011;31622;55.416;37.840;2024-01-15T09:39:39;6.55;;;4.28;;
45909;SDS011;31622;55.416;37.840;2024-01-15T09:42:06;8.50;;;4.63;;
45909;SDS011;31622;55.416;37.840;2024-01-15T09:44:33;6.05;;;4.22;;
45909;SDS011;31622;55.416;37.840;2024-01-15T09:46:59;5.97;;;3.92;;
45909;SDS011;31622;55.416;37.840;2024-01-15T09:49:25;8.10;;;5.38;;
45909;SDS011;31622;55.416;37.840;2024-01-15T09:51:51;6.15;;;3.90;;
45909;SDS011;31622;55.416;37.840;2024-01-15T09:54:17;5.20;;;4.15;;
45909;SDS011;31622;55.416;37.840;2024-01-15T09:56:47;5.18;;;4.00;;
45909;SDS011;31622;55.416;37.840;2024-01-15T09:59:14;5.05;;;3.80;;
45909;SDS011;31622;55.416;37.840;2024-01-15T10:01:41;5.53;;;4.43;;
45909;SDS011;31622;55.416;37.840;2024-01-15T10:04:10;5.22;;;4.25;;
45909;SDS011;31622;55.416;37.840;2024-01-15T10:06:38;5.30;;;3.85;;
45909;SDS011;31622;55.416;37.840;2024-01-15T10:09:04;6.18;;;4.13;;
45909;SDS011;31622;55.416;37.840;2024-01-15T10:11:31;5.90;;;4.35;;
45909;SDS011;31622;55.416;37.840;2024-01-15T10:13:57;5.50;;;4.00;;
45909;SDS011;31622;55.416;37.840;2024-01-15T10:16:22;6.97;;;4.20;;
45909;SDS011;31622;55.416;37.840;2024-01-15T10:18:49;4.47;;;3.40;;
45909;SDS011;31622;55.416;37.840;2024-01-15T10:21:14;5.43;;;3.78;;
45909;SDS011;31622;55.416;37.840;2024-01-15T10:23:41;5.65;;;3.95;;
45909;SDS011;31622;55.416;37.840;2024-01-15T10:26:07;6.35;;;4.00;;
45909;SDS011;31622;55.416;37.840;2024-01-15T10:28:33;5.38;;;4.15;;
45909;SDS011;31622;55.416;37.840;2024-01-15T10:30:59;5.45;;;4.13;;
45909;SDS011;31622;55.416;37.840;2024-01-15T10:33:25;4.90;;;3.42;;
45909;SDS011;31622;55.416;37.840;2024-01-15T10:35:54;4.57;;;3.58;;
45909;SDS011;31622;55.416;37.840;2024-01-15T10:38:21;4.78;;;3.65;;
45909;SDS011;31622;55.416;37.840;2024-01-15T10:40:48;5.60;;;3.95;;
45909;SDS011;31622;55.416;37.840;2024-01-15T10:43:16;4.65;;;3.65;;
45909;SDS011;31622;55.416;37.840;2024-01-15T10:45:45;4.28;;;3.72;;
45909;SDS011;31622;55.416;37.840;2024-01-15T10:48:16;8.57;;;3.75;;
45909;SDS011;31622;55.416;37.840;2024-01-15T10:50:43;5.68;;;3.58;;
45909;SDS011;31622;55.416;37.840;2024-01-15T10:53:09;6.00;;;3.70;;
45909;SDS011;31622;55.416;37.840;2024-01-15T10:55:37;4.75;;;3.30;;
45909;SDS011;31622;55.416;37.840;2024-01-15T10:58:06;4.53;;;3.60;;
45909;SDS011;31622;55.416;37.840;2024-01-15T11:00:35;4.50;;;3.40;;
45909;SDS011;31622;55.416;37.840;2024-01-15T11:03:05;4.03;;;3.35;;
45909;SDS011;31622;55.416;37.840;2024-01-15T11:05:38;4.72;;;3.55;;
45909;SDS011;31622;55.416;37.840;2024-01-15T11:08:07;6.75;;;4.03;;
45909;SDS011;31622;55.416;37.840;2024-01-15T11:13:54;4.82;;;3.78;;
45909;SDS011;31622;55.416;37.840;2024-01-15T11:16:04;4.40;;;3.58;;
45909;SDS011;31622;55.416;37.840;2024-01-15T11:18:34;4.38;;;3.33;;
45909;SDS011;31622;55.416;37.840;2024-01-15T11:21:19;5.47;;;4.07;;
45909;SDS011;31622;55.416;37.840;2024-01-15T11:23:45;4.18;;;3.25;;
45909;SDS011;31622;55.416;37.840;2024-01-15T11:29:04;5.65;;;3.90;;
45909;SDS011;31622;55.416;37.840;2024-01-15T11:34:03;4.85;;;3.60;;
45909;SDS011;31622;55.416;37.840;2024-01-15T11:41:54;5.43;;;4.05;;
45909;SDS011;31622;55.416;37.840;2024-01-15T11:44:20;5.18;;;3.70;;
45909;SDS011;31622;55.416;37.840;2024-01-15T11:47:00;6.00;;;4.10;;
45909;SDS011;31622;55.416;37.840;2024-01-15T11:52:16;7.00;;;4.35;;
45909;SDS011;31622;55.416;37.840;2024-01-15T11:57:54;6.57;;;4.10;;
45909;SDS011;31622;55.416;37.840;2024-01-15T12:00:20;5.97;;;3.80;;
45909;SDS011;31622;55.416;37.840;2024-01-15T12:02:47;5.10;;;3.60;;
45909;SDS011;31622;55.416;37.840;2024-01-15T12:05:14;5.55;;;4.03;;
45909;SDS011;31622;55.416;37.840;2024-01-15T12:07:41;6.55;;;3.85;;
45909;SDS011;31622;55.416;37.840;2024-01-15T12:10:11;6.97;;;4.13;;
45909;SDS011;31622;55.416;37.840;2024-01-15T12:15:10;6.38;;;3.60;;
45909;SDS011;31622;55.416;37.840;2024-01-15T12:17:35;6.40;;;3.70;;
45909;SDS011;31622;55.416;37.840;2024-01-15T12:20:04;5.35;;;3.50;;
45909;SDS011;31622;55.416;37.840;2024-01-15T12:22:31;5.82;;;3.83;;
45909;SDS011;31622;55.416;37.840;2024-01-15T12:24:57;6.35;;;3.95;;
45909;SDS011;31622;55.416;37.840;2024-01-15T12:27:23;5.05;;;3.75;;
45909;SDS011;31622;55.416;37.840;2024-01-15T12:29:49;5.72;;;3.70;;
45909;SDS011;31622;55.416;37.840;2024-01-15T12:32:15;5.55;;;4.05;;
45909;SDS011;31622;55.416;37.840;2024-01-15T12:34:40;4.95;;;3.60;;
45909;SDS011;31622;55.416;37.840;2024-01-15T12:37:07;5.78;;;4.00;;
45909;SDS011;31622;55.416;37.840;2024-01-15T12:39:35;5.95;;;3.60;;
45909;SDS011;31622;55.416;37.840;2024-01-15T12:42:01;5.35;;;3.35;;
45909;SDS011;31622;55.416;37.840;2024-01-15T12:44:29;4.78;;;3.63;;
45909;SDS011;31622;55.416;37.840;2024-01-15T12:46:55;4.50;;;3.45;;
45909;SDS011;31622;55.416;37.840;2024-01-15T12:49:21;4.30;;;3.70;;
45909;SDS011;31622;55.416;37.840;2024-01-15T12:51:57;4.30;;;3.28;;
45909;SDS011;31622;55.416;37.840;2024-01-15T12:54:23;6.10;;;3.83;;
45909;SDS011;31622;55.416;37.840;2024-01-15T12:56:49;4.80;;;3.28;;
45909;SDS011;31622;55.416;37.840;2024-01-15T12:59:16;6.55;;;3.78;;
45909;SDS011;31622;55.416;37.840;2024-01-15T13:01:42;4.35;;;3.05;;
45909;SDS011;31622;55.416;37.840;2024-01-15T13:04:08;3.90;;;3.17;;
45909;SDS011;31622;55.416;37.840;2024-01-15T13:06:37;4.45;;;3.20;;
45909;SDS011;31622;55.416;37.840;2024-01-15T13:09:03;3.75;;;3.00;;
45909;SDS011;31622;55.416;37.840;2024-01-15T13:11:32;5.47;;;3.70;;
45909;SDS011;31622;55.416;37.840;2024-01-15T13:13:58;4.18;;;3.20;;
45909;SDS011;31622;55.416;37.840;2024-01-15T13:16:24;4.38;;;3.28;;
45909;SDS011;31622;55.416;37.840;2024-01-15T13:18:53;3.95;;;2.88;;
45909;SDS011;31622;55.416;37.840;2024-01-15T13:21:19;5.53;;;3.30;;
45909;SDS011;31622;55.416;37.840;2024-01-15T13:23:45;4.35;;;3.30;;
45909;SDS011;31622;55.416;37.840;2024-01-15T13:26:11;5.28;;;3.30;;
45909;SDS011;31622;55.416;37.840;2024-01-15T13:28:37;3.63;;;3.22;;
45909;SDS011;31622;55.416;37.840;2024-01-15T13:31:03;4.70;;;3.10;;
45909;SDS011;31622;55.416;37.840;2024-01-15T13:33:30;4.80;;;3.20;;
45909;SDS011;31622;55.416;37.840;2024-01-15T13:35:55;5.15;;;3.45;;
45909;SDS011;31622;55.416;37.840;2024-01-15T13:38:21;4.07;;;3.17;;
45909;SDS011;31622;55.416;37.840;2024-01-15T13:40:47;4.78;;;3.38;;
45909;SDS011;31622;55.416;37.840;2024-01-15T13:43:13;3.95;;;3.20;;
45909;SDS011;31622;55.416;37.840;2024-01-15T13:45:40;5.55;;;3.35;;
45909;SDS011;31622;55.416;37.840;2024-01-15T13:48:06;5.03;;;3.42;;
45909;SDS011;31622;55.416;37.840;2024-01-15T13:50:36;5.40;;;3.50;;
45909;SDS011;31622;55.416;37.840;2024-01-15T13:53:02;4.30;;;3.38;;
45909;SDS011;31622;55.416;37.840;2024-01-15T13:55:31;5.47;;;3.40;;
45909;SDS011;31622;55.416;37.840;2024-01-15T13:57:57;4.38;;;3.42;;
45909;SDS011;31622;55.416;37.840;2024-01-15T14:00:23;5.20;;;3.15;;
45909;SDS011;31622;55.416;37.840;2024-01-15T14:02:49;5.13;;;3.53;;
45909;SDS011;31622;55.416;37.840;2024-01-15T14:05:14;3.70;;;3.20;;
45909;SDS011;31622;55.416;37.840;2024-01-15T14:07:41;5.32;;;3.22;;
45909;SDS011;31622;55.416;37.840;2024-01-15T14:10:08;4.97;;;3.15;;
45909;SDS011;31622;55.416;37.840;2024-01-15T14:12:35;3.53;;;3.05;;
45909;SDS011;31622;55.416;37.840;2024-01-15T14:15:02;4.28;;;3.30;;
45909;SDS011;31622;55.416;37.840;2024-01-15T14:17:28;4.35;;;3.10;;
45909;SDS011;31622;55.416;37.840;2024-01-15T14:19:54;4.28;;;3.10;;
45909;SDS011;31622;55.416;37.840;2024-01-15T14:22:20;5.20;;;3.72;;
45909;SDS011;31622;55.416;37.840;2024-01-15T14:24:46;4.50;;;3.10;;
45909;SDS011;31622;55.416;37.840;2024-01-15T14:27:11;3.75;;;3.03;;
45909;SDS011;31622;55.416;37.840;2024-01-15T14:29:37;4.75;;;3.25;;
45909;SDS011;31622;55.416;37.840;2024-01-15T14:32:03;4.35;;;3.25;;
45909;SDS011;31622;55.416;37.840;2024-01-15T14:34:29;4.18;;;2.78;;
45909;SDS011;31622;55.416;37.840;2024-01-15T14:36:55;5.07;;;2.90;;
45909;SDS011;31622;55.416;37.840;2024-01-15T14:39:21;4.85;;;3.13;;
45909;SDS011;31622;55.416;37.840;2024-01-15T14:41:47;4.57;;;3.47;;
45909;SDS011;31622;55.416;37.840;2024-01-15T14:44:13;6.10;;;3.80;;
45909;SDS011;31622;55.416;37.840;2024-01-15T14:46:39;4.25;;;3.40;;
45909;SDS011;31622;55.416;37.840;2024-01-15T14:49:05;4.35;;;3.20;;